Time;durP1;ratioP1;P1;durP2;ratioP2;P2;SDS_P1;SDS_P2;PMS_P1;PMS_P2;Temp;Humidity;BMP_temperature;BMP_pressure;BME280_temperature;BME280_humidity;BME280_pressure;Samples;Min_cycle;Max_cycle;Signal;HPM_P1;HPM_P2
2022/07/26 00:02:06;;;;;;;;;;;23.00;63.90;;;;;;5008380;28;19921;-73
2022/07/26 00:04:32;;;;;;;;;;;22.80;63.80;;;;;;5007588;28;19935;-73
2022/07/26 00:06:58;;;;;;;;;;;22.80;64.50;;;;;;5012733;28;19910;-72
2022/07/26 00:09:24;;;;;;;;;;;22.80;64.80;;;;;;5007347;28;19909;-76
2022/07/26 00:11:51;;;;;;;;;;;22.80;65.00;;;;;;5005353;28;19922;-73
2022/07/26 00:14:17;;;;;;;;;;;22.70;65.20;;;;;;5012764;28;19909;-74
2022/07/26 00:16:43;;;;;;;;;;;22.70;65.50;;;;;;5004694;28;19924;-73
2022/07/26 00:19:09;;;;;;;;;;;22.60;66.40;;;;;;5009152;28;19909;-73
2022/07/26 00:21:36;;;;;;;;;;;22.50;65.60;;;;;;5009905;28;19917;-73
2022/07/26 00:24:04;;;;;;;;;;;22.50;66.20;;;;;;5013737;28;20282;-73
2022/07/26 00:26:30;;;;;;;;;;;22.40;66.50;;;;;;5008207;28;19913;-73
2022/07/26 00:28:57;;;;;;;;;;;22.40;67.10;;;;;;5011626;28;19916;-73
2022/07/26 00:31:23;;;;;;;;;;;22.30;67.40;;;;;;5008554;28;19922;-73
2022/07/26 00:33:48;;;;;;;;;;;22.20;68.10;;;;;;5009242;28;19909;-73
2022/07/26 00:36:14;;;;;;;;;;;22.20;68.10;;;;;;5010370;28;20411;-74
2022/07/26 00:38:40;;;;;;;;;;;22.10;68.60;;;;;;5012905;28;19909;-73
2022/07/26 00:41:08;;;;;;;;;;;22.10;68.70;;;;;;5008726;28;20347;-74
2022/07/26 00:43:34;;;;;;;;;;;22.00;69.20;;;;;;5005427;28;20306;-74
2022/07/26 00:46:00;;;;;;;;;;;21.80;70.10;;;;;;5011633;28;19917;-74
2022/07/26 00:48:26;;;;;;;;;;;21.70;70.90;;;;;;5012750;28;20263;-79
2022/07/26 00:50:53;;;;;;;;;;;21.70;71.80;;;;;;5010152;28;19906;-74
2022/07/26 00:53:20;;;;;;;;;;;21.60;72.50;;;;;;5009593;28;20278;-74
2022/07/26 00:55:47;;;;;;;;;;;21.60;73.20;;;;;;5008817;28;19906;-74
2022/07/26 00:58:13;;;;;;;;;;;21.50;73.40;;;;;;5010747;28;19910;-74
2022/07/26 01:00:39;;;;;;;;;;;21.40;74.70;;;;;;5006693;28;20276;-74
2022/07/26 01:03:05;;;;;;;;;;;21.40;76.50;;;;;;5010221;28;19920;-74
2022/07/26 01:05:31;;;;;;;;;;;21.40;77.40;;;;;;5006343;28;19909;-74
2022/07/26 01:07:57;;;;;;;;;;;21.30;77.90;;;;;;5013427;28;20366;-74
2022/07/26 01:10:24;;;;;;;;;;;21.10;79.20;;;;;;5007883;28;19910;-75
2022/07/26 01:12:50;;;;;;;;;;;20.90;81.20;;;;;;5003078;28;19932;-73
2022/07/26 01:15:16;;;;;;;;;;;20.90;85.10;;;;;;5012465;28;19910;-74
2022/07/26 01:17:42;;;;;;;;;;;20.90;86.30;;;;;;5006519;28;19909;-74
2022/07/26 01:20:10;;;;;;;;;;;20.80;87.10;;;;;;5013428;28;19909;-74
2022/07/26 01:22:36;;;;;;;;;;;20.70;88.70;;;;;;5006727;28;20681;-76
2022/07/26 01:25:02;;;;;;;;;;;20.70;89.40;;;;;;5011363;28;19913;-74
2022/07/26 01:27:28;;;;;;;;;;;20.70;89.50;;;;;;5009365;28;19909;-80
2022/07/26 01:29:54;;;;;;;;;;;20.70;89.80;;;;;;5007755;28;19916;-74
2022/07/26 01:32:20;;;;;;;;;;;20.60;90.60;;;;;;5012928;28;20290;-74
2022/07/26 01:34:46;;;;;;;;;;;20.50;90.70;;;;;;5007977;28;20093;-74
2022/07/26 01:37:12;;;;;;;;;;;20.50;90.40;;;;;;5010941;28;19909;-77
2022/07/26 01:39:38;;;;;;;;;;;20.40;90.50;;;;;;5007852;28;20409;-74
2022/07/26 01:42:05;;;;;;;;;;;20.20;91.00;;;;;;5008969;28;20369;-78
2022/07/26 01:44:31;;;;;;;;;;;20.00;91.40;;;;;;5010749;28;19913;-75
2022/07/26 01:46:56;;;;;;;;;;;20.00;92.10;;;;;;5008065;28;20028;-74
2022/07/26 01:49:22;;;;;;;;;;;19.80;92.30;;;;;;5008873;28;19909;-74
2022/07/26 01:51:49;;;;;;;;;;;19.70;92.60;;;;;;5012104;28;19913;-74
2022/07/26 01:54:15;;;;;;;;;;;19.80;92.80;;;;;;5009515;28;20011;-74
2022/07/26 01:56:42;;;;;;;;;;;19.80;92.60;;;;;;5006729;28;20405;-74
2022/07/26 01:59:08;;;;;;;;;;;19.90;92.60;;;;;;5000053;28;19909;-74
2022/07/26 02:01:34;;;;;;;;;;;19.90;92.50;;;;;;5009824;28;19913;-78
2022/07/26 02:04:00;;;;;;;;;;;19.90;92.50;;;;;;5008131;28;20408;-74
2022/07/26 02:06:26;;;;;;;;;;;19.90;92.80;;;;;;5012612;28;19916;-73
2022/07/26 02:08:52;;;;;;;;;;;19.80;92.80;;;;;;4991500;28;20389;-74
2022/07/26 02:11:18;;;;;;;;;;;19.80;93.20;;;;;;5004172;28;19960;-73
2022/07/26 02:13:44;;;;;;;;;;;19.80;93.00;;;;;;5008424;28;20023;-73
2022/07/26 02:16:12;;;;;;;;;;;19.80;93.00;;;;;;5006790;28;19917;-73
2022/07/26 02:18:39;;;;;;;;;;;19.90;92.80;;;;;;5005652;28;20286;-74
2022/07/26 02:21:06;;;;;;;;;;;20.00;92.60;;;;;;5010419;28;19909;-74
2022/07/26 02:23:32;;;;;;;;;;;20.00;92.70;;;;;;5005917;28;19917;-74
2022/07/26 02:25:59;;;;;;;;;;;20.10;91.80;;;;;;5009058;28;19909;-74
2022/07/26 02:28:25;;;;;;;;;;;20.20;91.70;;;;;;5005142;28;19914;-73
2022/07/26 02:30:51;;;;;;;;;;;20.20;91.60;;;;;;5006575;28;19933;-74
2022/07/26 02:33:17;;;;;;;;;;;20.20;91.40;;;;;;5003953;28;20264;-72
2022/07/26 02:35:44;;;;;;;;;;;20.20;91.50;;;;;;5009102;28;19925;-72
2022/07/26 02:38:11;;;;;;;;;;;20.20;91.80;;;;;;5005819;28;20291;-72
2022/07/26 02:40:38;;;;;;;;;;;20.10;91.70;;;;;;5007820;28;19909;-74
2022/07/26 02:43:05;;;;;;;;;;;20.10;91.80;;;;;;5000381;28;20314;-77
2022/07/26 02:45:31;;;;;;;;;;;20.00;91.70;;;;;;5008941;28;20305;-78
2022/07/26 02:47:57;;;;;;;;;;;20.00;92.00;;;;;;5011212;28;19909;-73
2022/07/26 02:50:23;;;;;;;;;;;20.00;92.00;;;;;;5010343;28;19909;-75
2022/07/26 02:52:50;;;;;;;;;;;20.00;92.30;;;;;;5004301;28;19917;-73
2022/07/26 02:55:17;;;;;;;;;;;20.00;92.20;;;;;;5001824;28;19921;-73
2022/07/26 02:57:43;;;;;;;;;;;20.00;92.10;;;;;;5009400;28;19910;-74
2022/07/26 03:00:11;;;;;;;;;;;20.00;92.20;;;;;;5009832;28;19913;-73
2022/07/26 03:02:37;;;;;;;;;;;19.90;92.50;;;;;;5004599;28;19929;-74
2022/07/26 03:05:04;;;;;;;;;;;19.80;92.40;;;;;;5009980;28;20366;-73
2022/07/26 03:07:30;;;;;;;;;;;19.80;92.60;;;;;;5006771;28;19910;-78
2022/07/26 03:09:56;;;;;;;;;;;19.80;93.20;;;;;;5010848;28;20354;-77
2022/07/26 03:12:22;;;;;;;;;;;19.70;92.70;;;;;;5003619;28;19980;-74
2022/07/26 03:14:48;;;;;;;;;;;19.70;92.80;;;;;;5004010;28;19909;-73
2022/07/26 03:17:14;;;;;;;;;;;19.60;92.80;;;;;;5007111;28;19909;-73
2022/07/26 03:19:40;;;;;;;;;;;19.60;92.90;;;;;;5007476;28;19917;-73
2022/07/26 03:22:06;;;;;;;;;;;19.60;93.40;;;;;;5007582;28;19909;-73
2022/07/26 03:24:32;;;;;;;;;;;19.50;93.50;;;;;;5010414;28;19916;-74
2022/07/26 03:26:58;;;;;;;;;;;19.50;93.30;;;;;;5011789;28;19909;-73
2022/07/26 03:29:24;;;;;;;;;;;19.50;93.40;;;;;;5008861;28;20216;-72
2022/07/26 03:31:50;;;;;;;;;;;19.50;93.30;;;;;;5004905;28;20493;-74
2022/07/26 03:34:17;;;;;;;;;;;19.40;93.70;;;;;;5005783;28;20359;-73
2022/07/26 03:36:43;;;;;;;;;;;19.20;94.20;;;;;;5009823;28;19910;-74
2022/07/26 03:39:09;;;;;;;;;;;19.20;94.80;;;;;;5006981;28;20279;-74
2022/07/26 03:41:35;;;;;;;;;;;19.10;94.70;;;;;;5001826;28;19910;-74
2022/07/26 03:44:01;;;;;;;;;;;19.10;94.70;;;;;;5012065;28;20289;-73
2022/07/26 03:46:27;;;;;;;;;;;19.20;94.90;;;;;;5009228;28;19917;-73
2022/07/26 03:48:53;;;;;;;;;;;19.20;94.70;;;;;;5010708;28;19917;-73
2022/07/26 03:51:19;;;;;;;;;;;19.30;94.20;;;;;;5010302;28;19914;-72
2022/07/26 03:53:45;;;;;;;;;;;19.30;94.10;;;;;;5009808;28;19994;-75
2022/07/26 03:59:09;;;;;;;;;;;19.40;93.80;;;;;;5008324;28;19909;-72
2022/07/26 04:01:40;;;;;;;;;;;19.40;94.50;;;;;;5010753;28;19914;-74
2022/07/26 04:04:08;;;;;;;;;;;19.30;94.60;;;;;;5013037;28;20385;-73
2022/07/26 04:06:34;;;;;;;;;;;19.20;94.90;;;;;;5001930;28;19905;-73
2022/07/26 04:09:01;;;;;;;;;;;19.10;95.60;;;;;;5010806;28;19921;-72
2022/07/26 04:11:26;;;;;;;;;;;19.00;96.00;;;;;;5006815;28;19916;-72
2022/07/26 04:13:53;;;;;;;;;;;18.90;96.20;;;;;;5008502;28;20289;-73
2022/07/26 04:16:19;;;;;;;;;;;18.90;96.20;;;;;;5014534;28;19916;-74
2022/07/26 04:18:45;;;;;;;;;;;18.90;96.10;;;;;;5006083;28;19944;-73
2022/07/26 04:21:11;;;;;;;;;;;18.90;96.00;;;;;;5009982;28;19920;-73
2022/07/26 04:23:37;;;;;;;;;;;19.00;95.70;;;;;;5009419;28;19916;-73
2022/07/26 04:26:03;;;;;;;;;;;19.10;95.40;;;;;;5014919;28;19910;-75
2022/07/26 04:28:29;;;;;;;;;;;19.20;94.90;;;;;;5011458;28;19909;-73
2022/07/26 04:30:56;;;;;;;;;;;19.30;94.60;;;;;;4481940;28;15058667;-73
2022/07/26 04:33:22;;;;;;;;;;;19.40;94.50;;;;;;5009608;28;20267;-73
2022/07/26 04:35:48;;;;;;;;;;;19.40;94.10;;;;;;5008020;28;19920;-75
2022/07/26 04:38:15;;;;;;;;;;;19.40;93.90;;;;;;5012245;28;19916;-73
2022/07/26 04:40:41;;;;;;;;;;;19.50;93.40;;;;;;4996218;28;19909;-72
2022/07/26 04:43:07;;;;;;;;;;;19.60;93.80;;;;;;5008487;28;19913;-73
2022/07/26 04:45:33;;;;;;;;;;;19.70;92.70;;;;;;5014726;28;19909;-77
2022/07/26 04:47:59;;;;;;;;;;;19.80;92.50;;;;;;5009693;28;20251;-73
2022/07/26 04:50:26;;;;;;;;;;;19.90;92.50;;;;;;5008439;28;19914;-73
2022/07/26 04:52:53;;;;;;;;;;;19.90;91.50;;;;;;5010379;28;20469;-73
2022/07/26 04:55:21;;;;;;;;;;;19.90;91.60;;;;;;5013527;28;19914;-77
2022/07/26 04:57:47;;;;;;;;;;;20.00;91.80;;;;;;5007925;28;19931;-73
2022/07/26 05:00:14;;;;;;;;;;;20.20;90.90;;;;;;5005491;28;19917;-73
2022/07/26 05:02:40;;;;;;;;;;;20.40;91.40;;;;;;5018345;28;19916;-73
2022/07/26 05:05:06;;;;;;;;;;;20.50;90.40;;;;;;5017446;28;19909;-74
2022/07/26 05:07:39;;;;;;;;;;;20.40;90.70;;;;;;5024883;28;20337;-79
2022/07/26 05:10:05;;;;;;;;;;;20.30;90.90;;;;;;5002940;28;20286;-73
2022/07/26 05:12:31;;;;;;;;;;;20.10;91.40;;;;;;5007553;28;19920;-79
2022/07/26 05:14:57;;;;;;;;;;;20.10;91.60;;;;;;5009237;28;19913;-73
2022/07/26 05:17:23;;;;;;;;;;;20.10;91.80;;;;;;5024012;28;19915;-73
2022/07/26 05:19:49;;;;;;;;;;;20.10;91.80;;;;;;5019939;28;20012;-73
2022/07/26 05:22:15;;;;;;;;;;;20.10;92.10;;;;;;5006580;28;20008;-73
2022/07/26 05:24:41;;;;;;;;;;;20.20;92.20;;;;;;5010664;28;20277;-73
2022/07/26 05:27:07;;;;;;;;;;;21.00;90.60;;;;;;5008656;28;19909;-73
2022/07/26 05:29:33;;;;;;;;;;;21.40;88.90;;;;;;5013077;28;19924;-79
2022/07/26 05:31:59;;;;;;;;;;;21.40;86.70;;;;;;5008153;28;19924;-73
2022/07/26 05:34:25;;;;;;;;;;;21.10;87.50;;;;;;5008757;28;19910;-73
2022/07/26 05:36:51;;;;;;;;;;;20.90;87.30;;;;;;5007047;28;20519;-76
2022/07/26 05:39:17;;;;;;;;;;;20.70;88.30;;;;;;5004904;28;19920;-73
2022/07/26 05:41:44;;;;;;;;;;;20.90;88.90;;;;;;5009977;28;19917;-74
2022/07/26 05:44:10;;;;;;;;;;;21.40;87.10;;;;;;5011093;28;19913;-74
2022/07/26 05:46:39;;;;;;;;;;;22.10;83.50;;;;;;5007299;28;20262;-74
2022/07/26 05:49:06;;;;;;;;;;;23.00;79.00;;;;;;5007676;28;19933;-74
2022/07/26 05:51:32;;;;;;;;;;;23.60;74.60;;;;;;5007256;28;19909;-78
2022/07/26 05:53:59;;;;;;;;;;;22.80;75.50;;;;;;5005059;28;19924;-76
2022/07/26 05:56:24;;;;;;;;;;;21.90;80.30;;;;;;5004675;28;20260;-73
2022/07/26 05:58:50;;;;;;;;;;;21.50;81.20;;;;;;5008241;28;19920;-72
2022/07/26 06:01:17;;;;;;;;;;;21.10;84.10;;;;;;5006759;28;19910;-72
2022/07/26 06:03:43;;;;;;;;;;;21.40;83.20;;;;;;5001323;28;20282;-73
2022/07/26 06:06:10;;;;;;;;;;;22.80;77.80;;;;;;5003738;28;19914;-74
2022/07/26 06:08:36;;;;;;;;;;;23.30;74.70;;;;;;5010522;28;19920;-74
2022/07/26 06:11:02;;;;;;;;;;;23.80;74.40;;;;;;5007054;28;19909;-74
2022/07/26 06:13:28;;;;;;;;;;;24.40;69.30;;;;;;5000949;28;20398;-74
2022/07/26 06:15:54;;;;;;;;;;;24.40;68.60;;;;;;5007698;28;19932;-74
2022/07/26 06:18:20;;;;;;;;;;;24.40;70.30;;;;;;5011636;28;20355;-74
2022/07/26 06:20:46;;;;;;;;;;;25.00;65.90;;;;;;5010134;28;20290;-74
2022/07/26 06:23:13;;;;;;;;;;;24.90;65.00;;;;;;5010198;28;19916;-75
2022/07/26 06:25:39;;;;;;;;;;;24.20;65.60;;;;;;5008149;28;19909;-75
2022/07/26 06:28:07;;;;;;;;;;;23.60;67.00;;;;;;5010542;28;19928;-75
2022/07/26 06:30:33;;;;;;;;;;;23.00;68.90;;;;;;5008903;28;19925;-77
2022/07/26 06:32:59;;;;;;;;;;;22.60;70.60;;;;;;5007642;28;19925;-73
2022/07/26 06:35:29;;;;;;;;;;;23.10;70.10;;;;;;5002390;28;19933;-73
2022/07/26 06:37:56;;;;;;;;;;;23.50;69.20;;;;;;4993279;28;19932;-74
2022/07/26 06:40:22;;;;;;;;;;;23.70;67.70;;;;;;5006576;28;19917;-74
2022/07/26 06:42:48;;;;;;;;;;;23.30;70.30;;;;;;5008965;28;19909;-73
2022/07/26 06:45:14;;;;;;;;;;;24.30;67.60;;;;;;5006897;28;19909;-73
2022/07/26 06:47:40;;;;;;;;;;;24.00;66.10;;;;;;5010052;28;20353;-74
2022/07/26 06:50:06;;;;;;;;;;;23.70;67.20;;;;;;5010962;28;19944;-73
2022/07/26 06:52:33;;;;;;;;;;;24.00;66.00;;;;;;5008755;28;19966;-75
2022/07/26 06:54:59;;;;;;;;;;;24.20;65.10;;;;;;5009135;28;19910;-72
2022/07/26 06:57:26;;;;;;;;;;;24.50;63.80;;;;;;5000069;28;19909;-72
2022/07/26 06:59:52;;;;;;;;;;;24.20;65.80;;;;;;5007726;28;19917;-72
2022/07/26 07:02:18;;;;;;;;;;;24.20;65.10;;;;;;5007744;28;19913;-78
2022/07/26 07:04:44;;;;;;;;;;;24.10;65.60;;;;;;5010381;28;19924;-78
2022/07/26 07:07:10;;;;;;;;;;;23.70;66.20;;;;;;5018376;28;19908;-79
2022/07/26 07:09:37;;;;;;;;;;;22.90;65.90;;;;;;5018851;28;19950;-82
2022/07/26 07:12:04;;;;;;;;;;;22.70;63.90;;;;;;5015073;28;19909;-79
2022/07/26 07:14:30;;;;;;;;;;;22.80;65.30;;;;;;5018916;28;19914;-80
2022/07/26 07:16:56;;;;;;;;;;;23.50;64.30;;;;;;5021124;28;19932;-79
2022/07/26 07:19:22;;;;;;;;;;;24.40;61.20;;;;;;5016812;28;19913;-80
2022/07/26 07:21:48;;;;;;;;;;;24.90;59.00;;;;;;5016163;28;19910;-84
2022/07/26 07:24:15;;;;;;;;;;;23.80;60.70;;;;;;5011679;28;19909;-81
2022/07/26 07:26:41;;;;;;;;;;;24.10;60.90;;;;;;5017216;28;19909;-79
2022/07/26 07:29:11;;;;;;;;;;;24.10;60.70;;;;;;5018649;28;20278;-80
2022/07/26 07:31:37;;;;;;;;;;;24.40;61.00;;;;;;5021967;28;19917;-77
2022/07/26 07:34:03;;;;;;;;;;;24.80;59.20;;;;;;5014420;28;19924;-78
2022/07/26 07:36:29;;;;;;;;;;;25.00;59.00;;;;;;5018970;28;19909;-81
2022/07/26 07:38:55;;;;;;;;;;;24.50;59.30;;;;;;5014902;28;19959;-81
2022/07/26 07:41:21;;;;;;;;;;;23.50;60.90;;;;;;5016610;28;19909;-77
2022/07/26 07:43:48;;;;;;;;;;;23.50;62.50;;;;;;5016412;28;19910;-82
2022/07/26 07:46:14;;;;;;;;;;;23.30;61.80;;;;;;5011047;28;19956;-79
2022/07/26 07:48:40;;;;;;;;;;;23.20;62.50;;;;;;5018145;28;19909;-80
2022/07/26 07:51:06;;;;;;;;;;;23.70;62.90;;;;;;5014494;28;19909;-79
2022/07/26 07:53:32;;;;;;;;;;;24.90;61.10;;;;;;5005230;28;20256;-80
2022/07/26 07:55:58;;;;;;;;;;;26.30;59.10;;;;;;5005689;28;19944;-79
2022/07/26 07:58:25;;;;;;;;;;;26.50;56.50;;;;;;5002063;28;19913;-78
2022/07/26 08:00:51;;;;;;;;;;;26.30;56.20;;;;;;5010739;28;19920;-80
2022/07/26 08:03:18;;;;;;;;;;;25.90;58.00;;;;;;5005132;28;19921;-79
2022/07/26 08:05:44;;;;;;;;;;;25.80;57.60;;;;;;5004788;28;19909;-79
2022/07/26 08:08:10;;;;;;;;;;;25.40;57.70;;;;;;5007173;28;19968;-78
2022/07/26 08:10:36;;;;;;;;;;;24.40;59.00;;;;;;5008446;28;20004;-79
2022/07/26 08:13:02;;;;;;;;;;;24.40;59.00;;;;;;5006692;28;19947;-80
2022/07/26 08:15:28;;;;;;;;;;;23.90;61.10;;;;;;4996595;28;19955;-78
2022/07/26 08:17:53;;;;;;;;;;;23.90;59.80;;;;;;5009480;28;20089;-79
2022/07/26 08:20:20;;;;;;;;;;;23.60;60.60;;;;;;5009065;28;19909;-79
2022/07/26 08:22:46;;;;;;;;;;;23.80;61.40;;;;;;4997778;28;19933;-80
2022/07/26 08:25:12;;;;;;;;;;;24.00;60.00;;;;;;5006277;28;19953;-80
2022/07/26 08:27:38;;;;;;;;;;;24.50;59.40;;;;;;5008018;28;19935;-80
2022/07/26 08:30:04;;;;;;;;;;;24.50;58.30;;;;;;5005785;28;19922;-78
2022/07/26 08:32:30;;;;;;;;;;;23.60;60.70;;;;;;5011318;28;19936;-79
2022/07/26 08:34:56;;;;;;;;;;;23.00;62.90;;;;;;5010373;28;19932;-79
2022/07/26 08:37:22;;;;;;;;;;;23.40;63.10;;;;;;5011229;28;20366;-79
2022/07/26 08:39:48;;;;;;;;;;;24.00;60.70;;;;;;5010030;28;19916;-83
2022/07/26 08:42:16;;;;;;;;;;;24.20;59.80;;;;;;5011119;28;19909;-80
2022/07/26 08:44:43;;;;;;;;;;;24.40;60.80;;;;;;5004715;28;19915;-79
2022/07/26 08:47:09;;;;;;;;;;;25.10;59.90;;;;;;5008697;28;19916;-78
2022/07/26 08:49:36;;;;;;;;;;;26.50;57.80;;;;;;5008474;28;19916;-79
2022/07/26 08:52:02;;;;;;;;;;;26.60;56.00;;;;;;5013347;28;19917;-78
2022/07/26 08:54:28;;;;;;;;;;;25.40;56.40;;;;;;4999598;28;19936;-79
2022/07/26 08:56:54;;;;;;;;;;;24.20;58.90;;;;;;5010016;28;20357;-78
2022/07/26 08:59:20;;;;;;;;;;;24.00;59.40;;;;;;5011926;28;19913;-78
2022/07/26 09:01:52;;;;;;;;;;;24.10;59.70;;;;;;5010534;28;19916;-81
2022/07/26 09:04:19;;;;;;;;;;;23.60;61.40;;;;;;5008262;28;19921;-80
2022/07/26 09:07:04;;;;;;;;;;;23.60;61.30;;;;;;5011583;28;19909;-78
2022/07/26 09:09:31;;;;;;;;;;;24.00;60.60;;;;;;5008537;28;19924;-79
2022/07/26 09:11:58;;;;;;;;;;;24.40;59.20;;;;;;5012570;28;19925;-80
2022/07/26 09:14:37;;;;;;;;;;;23.80;59.90;;;;;;5008554;28;19924;-79
2022/07/26 09:17:04;;;;;;;;;;;23.70;61.00;;;;;;5012606;28;19910;-80
2022/07/26 09:19:31;;;;;;;;;;;23.40;61.80;;;;;;5013284;28;19910;-79
2022/07/26 09:22:04;;;;;;;;;;;23.10;62.10;;;;;;4988196;28;19958;-78
2022/07/26 09:24:35;;;;;;;;;;;23.20;62.80;;;;;;5001265;28;20290;-82
2022/07/26 09:27:03;;;;;;;;;;;23.30;63.60;;;;;;5008581;28;20109;-80
2022/07/26 09:29:29;;;;;;;;;;;24.40;63.30;;;;;;5004587;28;19913;-80
2022/07/26 09:32:15;;;;;;;;;;;25.20;60.40;;;;;;5012338;28;20225;-82
2022/07/26 09:34:49;;;;;;;;;;;24.90;59.40;;;;;;5010464;28;19917;-80
2022/07/26 09:37:15;;;;;;;;;;;24.70;59.50;;;;;;5008712;28;20282;-80
2022/07/26 09:39:55;;;;;;;;;;;24.90;57.50;;;;;;5012416;28;20493;-81
2022/07/26 09:42:21;;;;;;;;;;;24.60;57.40;;;;;;5012538;28;19913;-80
2022/07/26 09:44:47;;;;;;;;;;;25.00;58.70;;;;;;5009161;28;19909;-80
2022/07/26 09:47:14;;;;;;;;;;;25.20;56.30;;;;;;5010836;28;20355;-80
2022/07/26 09:49:40;;;;;;;;;;;24.40;58.50;;;;;;5009268;28;19914;-78
2022/07/26 09:52:13;;;;;;;;;;;24.00;58.10;;;;;;5008612;28;20374;-81
2022/07/26 09:54:40;;;;;;;;;;;23.90;58.80;;;;;;5010214;28;19924;-81
2022/07/26 09:57:06;;;;;;;;;;;23.80;59.00;;;;;;4993228;28;19909;-81
2022/07/26 09:59:32;;;;;;;;;;;23.90;59.50;;;;;;5010319;28;20248;-80
2022/07/26 10:01:59;;;;;;;;;;;24.90;58.40;;;;;;5006297;28;19921;-80
2022/07/26 10:04:25;;;;;;;;;;;25.20;57.00;;;;;;5010474;28;19917;-80
2022/07/26 10:06:52;;;;;;;;;;;25.50;56.70;;;;;;5005497;28;19913;-79
2022/07/26 10:09:18;;;;;;;;;;;25.30;55.90;;;;;;5012501;28;19910;-80
2022/07/26 10:11:46;;;;;;;;;;;24.60;57.10;;;;;;5007015;28;19910;-80
2022/07/26 10:14:31;;;;;;;;;;;24.20;57.30;;;;;;5007588;28;19921;-80
2022/07/26 10:16:57;;;;;;;;;;;24.20;57.80;;;;;;5006288;28;19928;-79
2022/07/26 10:19:36;;;;;;;;;;;24.80;56.40;;;;;;5005849;28;20273;-80
2022/07/26 10:22:21;;;;;;;;;;;25.80;55.80;;;;;;5008277;28;19921;-79
2022/07/26 10:24:47;;;;;;;;;;;26.80;53.80;;;;;;5009952;28;20389;-79
2022/07/26 10:27:51;;;;;;;;;;;26.50;53.20;;;;;;5012498;28;19910;-81
2022/07/26 10:30:21;;;;;;;;;;;26.20;52.70;;;;;;4945015;28;19929;-78
2022/07/26 10:32:47;;;;;;;;;;;25.90;53.30;;;;;;4975024;28;19918;-78
2022/07/26 10:35:33;;;;;;;;;;;26.30;53.80;;;;;;4965661;28;20013;-78
2022/07/26 10:38:04;;;;;;;;;;;26.20;51.70;;;;;;4957313;28;19942;-79
2022/07/26 10:40:31;;;;;;;;;;;25.90;52.10;;;;;;4965937;28;19910;-78
2022/07/26 10:43:06;;;;;;;;;;;25.50;52.40;;;;;;4948189;29;19910;-79
2022/07/26 10:45:32;;;;;;;;;;;25.20;53.20;;;;;;4958650;28;19921;-81
2022/07/26 10:48:24;;;;;;;;;;;25.30;52.90;;;;;;4968903;28;19910;-80
2022/07/26 10:50:51;;;;;;;;;;;25.90;53.70;;;;;;4963771;28;19910;-80
2022/07/26 10:53:24;;;;;;;;;;;26.60;53.20;;;;;;4961841;28;19917;-82
2022/07/26 10:55:53;;;;;;;;;;;26.80;51.80;;;;;;4966763;28;20001;-83
2022/07/26 10:58:23;;;;;;;;;;;26.60;50.20;;;;;;4971820;28;20398;-79
2022/07/26 11:01:03;;;;;;;;;;;26.20;52.90;;;;;;4985114;28;20405;-80
2022/07/26 11:03:39;;;;;;;;;;;26.30;52.60;;;;;;5011268;28;20358;-81
2022/07/26 11:06:12;;;;;;;;;;;25.90;51.90;;;;;;5011208;28;20358;-84
2022/07/26 11:08:39;;;;;;;;;;;25.40;52.30;;;;;;5003596;28;19909;-81
2022/07/26 11:11:05;;;;;;;;;;;25.50;52.50;;;;;;5006529;28;20390;-80
2022/07/26 11:13:32;;;;;;;;;;;25.50;52.60;;;;;;5004621;28;20391;-84
2022/07/26 11:15:59;;;;;;;;;;;25.30;52.20;;;;;;5015578;28;19939;-80
2022/07/26 11:18:27;;;;;;;;;;;25.10;53.10;;;;;;5022210;28;19914;-79
2022/07/26 11:20:53;;;;;;;;;;;25.20;53.30;;;;;;5011063;28;19932;-82
2022/07/26 11:23:39;;;;;;;;;;;25.10;52.40;;;;;;5010453;28;19905;-79
2022/07/26 11:26:05;;;;;;;;;;;24.90;52.90;;;;;;5013641;28;19909;-79
2022/07/26 11:28:50;;;;;;;;;;;25.10;53.80;;;;;;5019683;28;19909;-81
2022/07/26 11:31:17;;;;;;;;;;;25.90;52.60;;;;;;5016782;28;19928;-79
2022/07/26 11:33:44;;;;;;;;;;;26.00;52.80;;;;;;5016051;28;19929;-81
2022/07/26 11:36:10;;;;;;;;;;;25.90;51.80;;;;;;5014350;28;19961;-80
2022/07/26 11:38:43;;;;;;;;;;;25.80;52.70;;;;;;5002324;28;19916;-83
2022/07/26 11:41:09;;;;;;;;;;;25.80;51.40;;;;;;5007235;28;20297;-79
2022/07/26 11:43:38;;;;;;;;;;;25.50;51.40;;;;;;5010417;28;20385;-82
2022/07/26 11:46:05;;;;;;;;;;;25.40;51.80;;;;;;5006364;28;19916;-80
2022/07/26 11:48:32;;;;;;;;;;;25.20;52.30;;;;;;5003312;28;20281;-79
2022/07/26 11:51:08;;;;;;;;;;;25.20;52.20;;;;;;5008088;28;20287;-78
2022/07/26 11:53:36;;;;;;;;;;;25.10;52.50;;;;;;5009670;28;19921;-82
2022/07/26 11:56:15;;;;;;;;;;;25.00;52.90;;;;;;5004866;28;20240;-76
2022/07/26 11:58:42;;;;;;;;;;;25.00;53.20;;;;;;5011500;28;19917;-79
2022/07/26 12:01:09;;;;;;;;;;;25.20;53.90;;;;;;5013644;28;19909;-76
2022/07/26 12:03:39;;;;;;;;;;;25.40;53.40;;;;;;5015937;28;19916;-80
2022/07/26 12:06:09;;;;;;;;;;;25.40;53.10;;;;;;5012141;28;20386;-78
2022/07/26 12:08:43;;;;;;;;;;;25.20;53.00;;;;;;5021707;28;19987;-78
2022/07/26 12:11:09;;;;;;;;;;;25.30;53.90;;;;;;5023352;28;19916;-78
2022/07/26 12:13:52;;;;;;;;;;;25.80;53.50;;;;;;5022494;28;20290;-79
2022/07/26 12:16:48;;;;;;;;;;;26.40;51.50;;;;;;5025607;28;20274;-81
2022/07/26 12:19:17;;;;;;;;;;;26.80;52.10;;;;;;5000033;28;19914;-77
2022/07/26 12:21:48;;;;;;;;;;;27.20;50.30;;;;;;5021501;28;20374;-81
2022/07/26 12:24:33;;;;;;;;;;;27.10;50.20;;;;;;5017878;28;20268;-81
2022/07/26 12:27:23;;;;;;;;;;;27.10;50.00;;;;;;5021819;28;19936;-80
2022/07/26 12:29:50;;;;;;;;;;;27.40;51.80;;;;;;5015768;28;19957;-80
2022/07/26 12:32:17;;;;;;;;;;;28.00;50.20;;;;;;5017717;28;19916;-78
2022/07/26 12:34:54;;;;;;;;;;;28.00;49.40;;;;;;5020174;28;19917;-83
2022/07/26 12:37:20;;;;;;;;;;;27.30;49.60;;;;;;5018529;28;20251;-78
2022/07/26 12:39:59;;;;;;;;;;;27.10;50.50;;;;;;5022533;28;20358;-79
2022/07/26 12:42:27;;;;;;;;;;;27.60;51.10;;;;;;5019780;28;19909;-78
2022/07/26 12:44:53;;;;;;;;;;;27.50;50.00;;;;;;5020893;28;19920;-78
2022/07/26 12:47:20;;;;;;;;;;;27.00;50.00;;;;;;5020917;28;20023;-82
2022/07/26 12:49:46;;;;;;;;;;;26.60;50.40;;;;;;5020771;28;19913;-79
2022/07/26 12:52:16;;;;;;;;;;;26.30;51.80;;;;;;5021717;28;20465;-81
2022/07/26 12:54:43;;;;;;;;;;;26.30;51.40;;;;;;5018990;28;19917;-79
2022/07/26 12:57:09;;;;;;;;;;;26.30;51.30;;;;;;5006561;28;20274;-80
2022/07/26 12:59:35;;;;;;;;;;;26.40;50.70;;;;;;5017455;28;20371;-79
2022/07/26 13:02:02;;;;;;;;;;;26.00;51.10;;;;;;5018829;28;19909;-79
2022/07/26 13:04:28;;;;;;;;;;;25.90;51.20;;;;;;5016358;28;20290;-78
2022/07/26 13:06:54;;;;;;;;;;;26.00;50.90;;;;;;5015986;28;19917;-79
2022/07/26 13:09:20;;;;;;;;;;;26.20;50.70;;;;;;5012985;28;19909;-73
2022/07/26 13:11:46;;;;;;;;;;;26.60;51.10;;;;;;5008437;28;19909;-73
2022/07/26 13:14:12;;;;;;;;;;;26.40;50.80;;;;;;5006620;28;20443;-73
2022/07/26 13:16:38;;;;;;;;;;;26.20;50.60;;;;;;5007549;28;19917;-72
2022/07/26 13:19:04;;;;;;;;;;;26.00;51.20;;;;;;5011537;28;19944;-72
2022/07/26 13:21:30;;;;;;;;;;;26.40;51.50;;;;;;5009076;28;19910;-73
2022/07/26 13:23:57;;;;;;;;;;;26.40;51.50;;;;;;5008884;28;20136;-72
2022/07/26 13:26:23;;;;;;;;;;;26.30;51.10;;;;;;5012296;28;19920;-73
2022/07/26 13:28:49;;;;;;;;;;;26.30;51.50;;;;;;5013281;28;19922;-72
2022/07/26 13:31:15;;;;;;;;;;;26.40;51.40;;;;;;5013482;28;20358;-73
2022/07/26 13:33:41;;;;;;;;;;;26.20;51.90;;;;;;5009376;28;19925;-73
2022/07/26 13:36:07;;;;;;;;;;;26.30;51.70;;;;;;5007951;28;20004;-73
2022/07/26 13:38:34;;;;;;;;;;;26.10;51.30;;;;;;5005747;28;19932;-73
2022/07/26 13:41:01;;;;;;;;;;;26.20;51.80;;;;;;5004936;28;19913;-74
2022/07/26 13:43:27;;;;;;;;;;;26.10;51.80;;;;;;5008104;28;19909;-74
2022/07/26 13:45:53;;;;;;;;;;;25.90;51.40;;;;;;5008467;28;19910;-73
2022/07/26 13:48:19;;;;;;;;;;;25.90;52.00;;;;;;5012483;28;20279;-74
2022/07/26 13:50:45;;;;;;;;;;;26.30;51.50;;;;;;5009443;28;19997;-74
2022/07/26 13:53:11;;;;;;;;;;;26.20;50.50;;;;;;5008330;28;19910;-73
2022/07/26 13:55:37;;;;;;;;;;;26.10;50.30;;;;;;5008058;28;20251;-79
2022/07/26 13:58:03;;;;;;;;;;;26.20;50.50;;;;;;5008366;28;20397;-77
2022/07/26 14:00:29;;;;;;;;;;;26.60;50.20;;;;;;5010839;28;19920;-78
2022/07/26 14:02:56;;;;;;;;;;;26.70;49.50;;;;;;5006938;28;19909;-76
2022/07/26 14:05:22;;;;;;;;;;;26.40;49.60;;;;;;5014983;28;20219;-76
2022/07/26 14:07:48;;;;;;;;;;;26.20;49.70;;;;;;5006816;28;19917;-77
2022/07/26 14:10:16;;;;;;;;;;;26.20;50.50;;;;;;5010233;28;19917;-77
2022/07/26 14:12:42;;;;;;;;;;;26.40;50.30;;;;;;5010550;28;20267;-76
2022/07/26 14:15:08;;;;;;;;;;;26.40;49.50;;;;;;5001876;28;20386;-76
2022/07/26 14:17:35;;;;;;;;;;;26.40;49.70;;;;;;4998828;28;19916;-76
2022/07/26 14:20:01;;;;;;;;;;;26.50;50.10;;;;;;5010093;28;19913;-77
2022/07/26 14:22:28;;;;;;;;;;;26.80;48.60;;;;;;5005642;28;19913;-76